createdAt,value
2023-05-21T00:00:27.491Z,632.00
2023-05-21T00:01:27.576Z,637.00
2023-05-21T00:02:27.687Z,632.00
2023-05-21T00:03:27.714Z,629.00
2023-05-21T00:04:28.171Z,631.00
2023-05-21T00:05:27.734Z,630.00
2023-05-21T00:06:27.892Z,633.00
2023-05-21T00:07:27.805Z,627.00
2023-05-21T00:08:27.851Z,632.00
2023-05-21T00:09:27.887Z,634.00
2023-05-21T00:10:27.935Z,633.00
2023-05-21T00:11:27.971Z,628.00
2023-05-21T00:12:28.072Z,630.00
2023-05-21T00:13:28.073Z,634.00
2023-05-21T00:14:28.122Z,633.00
2023-05-21T00:15:28.173Z,634.00
2023-05-21T00:16:28.319Z,633.00
2023-05-21T00:17:28.267Z,634.00
2023-05-21T00:18:28.310Z,633.00
2023-05-21T00:19:28.435Z,628.00
2023-05-21T00:20:28.412Z,636.00
2023-05-21T00:21:28.432Z,636.00
2023-05-21T00:22:28.485Z,635.00
2023-05-21T00:23:28.548Z,634.00
2023-05-21T00:24:28.575Z,631.00
2023-05-21T00:25:28.684Z,632.00
2023-05-21T00:26:28.673Z,635.00
2023-05-21T00:27:28.721Z,636.00
2023-05-21T00:28:28.770Z,629.00
2023-05-21T00:29:28.808Z,633.00
2023-05-21T00:30:28.861Z,633.00
2023-05-21T00:31:28.949Z,633.00
2023-05-21T00:32:29.703Z,628.00
2023-05-21T00:33:28.992Z,630.00
2023-05-21T00:34:29.093Z,633.00
2023-05-21T00:35:29.076Z,631.00
2023-05-21T00:36:29.120Z,635.00
2023-05-21T00:37:29.173Z,633.00
2023-05-21T00:38:29.222Z,638.00
2023-05-21T00:39:29.323Z,633.00
2023-05-21T00:40:29.330Z,635.00
2023-05-21T00:41:29.451Z,634.00
2023-05-21T00:42:29.419Z,636.00
2023-05-21T00:43:29.683Z,633.00
2023-05-21T00:44:29.542Z,634.00
2023-05-21T00:45:29.629Z,633.00
2023-05-21T00:46:29.628Z,635.00
2023-05-21T00:47:29.848Z,636.00
2023-05-21T00:48:29.688Z,635.00
2023-05-21T00:49:29.740Z,634.00
2023-05-21T00:50:29.833Z,634.00
2023-05-21T00:51:30.262Z,631.00
2023-05-21T00:52:29.873Z,639.00
2023-05-21T00:53:30.072Z,635.00
2023-05-21T00:54:29.965Z,635.00
2023-05-21T00:55:30.025Z,637.00
2023-05-21T00:56:30.062Z,635.00
2023-05-21T00:57:30.120Z,629.00
2023-05-21T00:58:30.160Z,635.00
2023-05-21T00:59:30.280Z,636.00
2023-05-21T01:00:30.264Z,632.00
2023-05-21T01:01:30.367Z,633.00
2023-05-21T01:02:30.443Z,632.00
2023-05-21T01:03:30.505Z,637.00
2023-05-21T01:04:30.454Z,635.00
2023-05-21T01:05:30.646Z,635.00
2023-05-21T01:06:30.595Z,635.00
2023-05-21T01:07:30.596Z,636.00
2023-05-21T01:08:30.651Z,637.00
2023-05-21T01:09:30.703Z,637.00
2023-05-21T01:10:30.769Z,638.00
2023-05-21T01:11:30.808Z,637.00
2023-05-21T01:12:30.845Z,636.00
2023-05-21T01:13:30.894Z,636.00
2023-05-21T01:14:30.942Z,636.00
2023-05-21T01:15:30.997Z,639.00
2023-05-21T01:16:31.086Z,635.00
2023-05-21T01:17:31.121Z,636.00
2023-05-21T01:18:31.192Z,637.00
2023-05-21T01:19:31.220Z,635.00
2023-05-21T01:20:31.240Z,635.00
2023-05-21T01:21:31.284Z,636.00
2023-05-21T01:22:31.352Z,636.00
2023-05-21T01:23:31.469Z,637.00
2023-05-21T01:24:31.454Z,636.00
2023-05-21T01:25:31.577Z,636.00
2023-05-21T01:26:31.567Z,638.00
2023-05-21T01:27:31.611Z,628.00
2023-05-21T01:28:31.670Z,632.00
2023-05-21T01:29:31.743Z,635.00
2023-05-21T01:30:31.777Z,638.00
2023-05-21T01:31:31.827Z,637.00
2023-05-21T01:32:31.897Z,635.00
2023-05-21T01:33:32.004Z,638.00
2023-05-21T01:34:32.000Z,636.00
2023-05-21T01:35:32.081Z,636.00
2023-05-21T01:36:32.165Z,640.00
2023-05-21T01:37:32.699Z,640.00
2023-05-21T01:38:32.192Z,638.00
2023-05-21T01:39:32.243Z,636.00
2023-05-21T01:40:32.313Z,643.00
2023-05-21T01:41:32.364Z,640.00
2023-05-21T01:42:32.407Z,639.00
2023-05-21T01:43:32.450Z,638.00
2023-05-21T01:44:32.499Z,640.00
2023-05-21T01:45:32.561Z,638.00
2023-05-21T01:46:32.646Z,639.00
2023-05-21T01:47:32.713Z,641.00
2023-05-21T01:48:32.715Z,640.00
2023-05-21T01:49:32.761Z,640.00
2023-05-21T01:50:32.832Z,637.00
2023-05-21T01:51:32.856Z,639.00
2023-05-21T01:52:32.930Z,643.00
2023-05-21T01:53:32.989Z,642.00
2023-05-21T01:54:33.008Z,642.00
2023-05-21T01:55:33.082Z,640.00
2023-05-21T01:56:33.117Z,644.00
2023-05-21T01:57:33.149Z,641.00
2023-05-21T01:58:33.201Z,639.00
2023-05-21T01:59:33.246Z,642.00
2023-05-21T02:00:33.304Z,642.00
2023-05-21T02:01:33.381Z,642.00
2023-05-21T02:02:33.548Z,638.00
2023-05-21T02:03:33.572Z,641.00
2023-05-21T02:04:33.508Z,641.00
2023-05-21T02:05:33.666Z,633.00
2023-05-21T02:06:33.621Z,641.00
2023-05-21T02:07:33.663Z,640.00
2023-05-21T02:08:33.775Z,640.00
2023-05-21T02:09:33.815Z,639.00
2023-05-21T02:10:33.827Z,641.00
2023-05-21T02:11:33.957Z,642.00
2023-05-21T02:12:33.913Z,640.00
2023-05-21T02:13:33.953Z,641.00
2023-05-21T02:14:34.024Z,639.00
2023-05-21T02:15:34.323Z,641.00
2023-05-21T02:16:34.168Z,643.00
2023-05-21T02:17:34.259Z,641.00
2023-05-21T02:18:34.228Z,638.00
2023-05-21T02:19:34.391Z,636.00
2023-05-21T02:20:34.339Z,638.00
2023-05-21T02:21:34.376Z,642.00
2023-05-21T02:22:34.733Z,639.00
2023-05-21T02:23:34.474Z,639.00
2023-05-21T02:24:34.523Z,639.00
2023-05-21T02:25:34.744Z,640.00
2023-05-21T02:26:34.602Z,636.00
2023-05-21T02:27:34.648Z,639.00
2023-05-21T02:28:34.693Z,636.00
2023-05-21T02:29:34.747Z,641.00
2023-05-21T02:30:34.799Z,637.00
2023-05-21T02:31:34.841Z,638.00
2023-05-21T02:32:34.926Z,632.00
2023-05-21T02:33:34.953Z,638.00
2023-05-21T02:34:35.001Z,639.00
2023-05-21T02:35:35.442Z,634.00
2023-05-21T02:36:35.084Z,641.00
2023-05-21T02:37:35.170Z,640.00
2023-05-21T02:38:35.179Z,636.00
2023-05-21T02:39:35.314Z,635.00
2023-05-21T02:40:35.363Z,645.00
2023-05-21T02:41:35.430Z,637.00
2023-05-21T02:42:35.434Z,637.00
2023-05-21T02:43:35.434Z,636.00
2023-05-21T02:44:35.485Z,641.00
2023-05-21T02:45:35.819Z,640.00
2023-05-21T02:46:35.741Z,641.00
2023-05-21T02:47:35.675Z,635.00
2023-05-21T02:48:35.696Z,639.00
2023-05-21T02:49:35.752Z,639.00
2023-05-21T02:50:35.807Z,637.00
2023-05-21T02:51:35.829Z,633.00
2023-05-21T02:52:35.950Z,641.00
2023-05-21T02:53:35.943Z,639.00
2023-05-21T02:54:36.000Z,635.00
2023-05-21T02:55:36.348Z,640.00
2023-05-21T02:56:36.103Z,636.00
2023-05-21T02:57:36.160Z,635.00
2023-05-21T02:58:36.226Z,636.00
2023-05-21T02:59:37.234Z,641.00
2023-05-21T03:00:36.297Z,635.00
2023-05-21T03:01:36.409Z,641.00
2023-05-21T03:02:36.502Z,633.00
2023-05-21T03:03:36.603Z,639.00
2023-05-21T03:04:36.517Z,638.00
2023-05-21T03:05:36.943Z,642.00
2023-05-21T03:06:36.614Z,641.00
2023-05-21T03:07:36.668Z,641.00
2023-05-21T03:08:36.728Z,639.00
2023-05-21T03:09:36.788Z,639.00
2023-05-21T03:10:36.839Z,636.00
2023-05-21T03:11:36.906Z,638.00
2023-05-21T03:12:36.939Z,639.00
2023-05-21T03:13:37.141Z,637.00
2023-05-21T03:14:37.035Z,637.00
2023-05-21T03:15:37.236Z,640.00
2023-05-21T03:16:37.157Z,636.00
2023-05-21T03:17:37.209Z,638.00
2023-05-21T03:18:38.233Z,638.00
2023-05-21T03:19:37.284Z,638.00
2023-05-21T03:20:37.355Z,638.00
2023-05-21T03:21:37.388Z,640.00
2023-05-21T03:22:37.432Z,643.00
2023-05-21T03:23:37.479Z,641.00
2023-05-21T03:24:37.533Z,640.00
2023-05-21T03:25:37.734Z,639.00
2023-05-21T03:26:37.647Z,639.00
2023-05-21T03:27:37.685Z,637.00
2023-05-21T03:28:37.793Z,638.00
2023-05-21T03:29:37.779Z,638.00
2023-05-21T03:30:37.840Z,643.00
2023-05-21T03:31:37.913Z,640.00
2023-05-21T03:32:38.136Z,642.00
2023-05-21T03:33:37.984Z,642.00
2023-05-21T03:34:38.041Z,642.00
2023-05-21T03:35:38.392Z,640.00
2023-05-21T03:36:38.126Z,640.00
2023-05-21T03:37:38.196Z,638.00
2023-05-21T03:38:38.224Z,638.00
2023-05-21T03:39:38.276Z,640.00
2023-05-21T03:40:38.330Z,638.00
2023-05-21T03:41:38.430Z,640.00
2023-05-21T03:42:38.418Z,640.00
2023-05-21T03:43:38.461Z,636.00
2023-05-21T03:44:38.536Z,640.00
2023-05-21T03:45:39.428Z,639.00
2023-05-21T03:46:38.787Z,645.00
2023-05-21T03:47:38.779Z,637.00
2023-05-21T03:48:38.724Z,642.00
2023-05-21T03:49:38.797Z,640.00
2023-05-21T03:50:38.845Z,635.00
2023-05-21T03:51:38.890Z,638.00
2023-05-21T03:52:38.947Z,638.00
2023-05-21T03:53:39.015Z,634.00
2023-05-21T03:54:39.041Z,635.00
2023-05-21T03:55:39.098Z,633.00
2023-05-21T03:56:39.143Z,638.00
2023-05-21T03:57:39.202Z,637.00
2023-05-21T03:58:39.240Z,638.00
2023-05-21T03:59:39.298Z,639.00
2023-05-21T04:00:39.342Z,634.00
2023-05-21T04:01:39.400Z,635.00
2023-05-21T04:02:39.486Z,638.00
2023-05-21T04:03:40.847Z,635.00
2023-05-21T04:04:39.647Z,636.00
2023-05-21T04:05:39.611Z,638.00
2023-05-21T04:06:39.657Z,635.00
2023-05-21T04:07:39.709Z,636.00
2023-05-21T04:08:39.767Z,633.00
2023-05-21T04:09:39.813Z,637.00
2023-05-21T04:10:39.872Z,632.00
2023-05-21T04:11:39.924Z,632.00
2023-05-21T04:12:39.979Z,636.00
2023-05-21T04:13:40.019Z,636.00
2023-05-21T04:14:40.082Z,635.00
2023-05-21T04:15:40.206Z,635.00
2023-05-21T04:16:40.263Z,636.00
2023-05-21T04:17:40.274Z,634.00
2023-05-21T04:18:40.278Z,636.00
2023-05-21T04:19:40.396Z,635.00
2023-05-21T04:20:40.369Z,640.00
2023-05-21T04:21:40.430Z,636.00
2023-05-21T04:22:40.477Z,633.00
2023-05-21T04:23:40.522Z,639.00
2023-05-21T04:24:40.577Z,635.00
2023-05-21T04:25:40.616Z,631.00
2023-05-21T04:26:41.285Z,634.00
2023-05-21T04:27:40.778Z,637.00
2023-05-21T04:28:40.762Z,633.00
2023-05-21T04:29:40.896Z,637.00
2023-05-21T04:30:40.878Z,633.00
2023-05-21T04:31:40.952Z,637.00
2023-05-21T04:32:41.007Z,634.00
2023-05-21T04:33:41.017Z,631.00
2023-05-21T04:34:41.067Z,635.00
2023-05-21T04:35:41.280Z,631.00
2023-05-21T04:36:41.178Z,631.00
2023-05-21T04:37:41.217Z,634.00
2023-05-21T04:38:41.275Z,631.00
2023-05-21T04:39:42.268Z,630.00
2023-05-21T04:40:41.380Z,636.00
2023-05-21T04:41:41.425Z,632.00
2023-05-21T04:42:41.506Z,631.00
2023-05-21T04:43:41.533Z,631.00
2023-05-21T04:44:41.588Z,630.00
2023-05-21T04:45:41.641Z,632.00
2023-05-21T04:46:42.014Z,632.00
2023-05-21T04:47:41.746Z,628.00
2023-05-21T04:48:41.777Z,629.00
2023-05-21T04:49:42.281Z,634.00
2023-05-21T04:50:41.878Z,629.00
2023-05-21T04:51:41.926Z,630.00
2023-05-21T04:52:41.991Z,631.00
2023-05-21T04:53:42.016Z,631.00
2023-05-21T04:54:42.070Z,628.00
2023-05-21T04:55:42.131Z,625.00
2023-05-21T04:56:42.168Z,629.00
2023-05-21T04:57:42.189Z,631.00
2023-05-21T04:58:42.227Z,632.00
2023-05-21T04:59:42.268Z,630.00
2023-05-21T05:00:42.417Z,627.00
2023-05-21T05:01:42.364Z,627.00
2023-05-21T05:02:42.423Z,631.00
2023-05-21T05:03:42.495Z,626.00
2023-05-21T05:04:42.490Z,631.00
2023-05-21T05:05:42.547Z,622.00
2023-05-21T05:06:42.596Z,626.00
2023-05-21T05:07:42.640Z,626.00
2023-05-21T05:08:42.672Z,625.00
2023-05-21T05:09:42.725Z,629.00
2023-05-21T05:10:42.768Z,624.00
2023-05-21T05:11:42.821Z,629.00
2023-05-21T05:12:42.858Z,621.00
2023-05-21T05:13:42.919Z,628.00
2023-05-21T05:14:42.935Z,626.00
2023-05-21T05:15:42.966Z,623.00
2023-05-21T05:16:43.234Z,623.00
2023-05-21T05:17:43.081Z,628.00
2023-05-21T05:18:43.108Z,626.00
2023-05-21T05:19:43.151Z,625.00
2023-05-21T05:20:43.204Z,624.00
2023-05-21T05:21:43.242Z,625.00
2023-05-21T05:22:43.284Z,628.00
2023-05-21T05:23:43.331Z,624.00
2023-05-21T05:24:43.375Z,620.00
2023-05-21T05:25:43.436Z,621.00
2023-05-21T05:26:43.475Z,623.00
2023-05-21T05:27:43.504Z,620.00
2023-05-21T05:28:43.581Z,626.00
2023-05-21T05:29:43.606Z,622.00
2023-05-21T05:30:43.658Z,622.00
2023-05-21T05:31:43.688Z,621.00
2023-05-21T05:32:43.758Z,618.00
2023-05-21T05:33:43.777Z,621.00
2023-05-21T05:34:43.796Z,624.00
2023-05-21T05:35:43.833Z,623.00
2023-05-21T05:36:43.893Z,625.00
2023-05-21T05:37:44.035Z,620.00
2023-05-21T05:38:43.985Z,621.00
2023-05-21T05:39:44.021Z,618.00
2023-05-21T05:40:44.075Z,620.00
2023-05-21T05:41:44.088Z,618.00
2023-05-21T05:42:44.123Z,619.00
2023-05-21T05:43:44.164Z,619.00
2023-05-21T05:44:44.212Z,620.00
2023-05-21T05:45:44.259Z,621.00
2023-05-21T05:46:44.360Z,621.00
2023-05-21T05:47:44.426Z,617.00
2023-05-21T05:48:44.379Z,618.00
2023-05-21T05:49:44.410Z,622.00
2023-05-21T05:50:44.455Z,622.00
2023-05-21T05:51:44.494Z,614.00
2023-05-21T05:52:44.524Z,615.00
2023-05-21T05:53:44.554Z,620.00
2023-05-21T05:54:44.591Z,619.00
2023-05-21T05:55:44.623Z,620.00
2023-05-21T05:56:44.665Z,621.00
2023-05-21T05:57:45.307Z,617.00
2023-05-21T05:58:44.776Z,615.00
2023-05-21T05:59:44.789Z,616.00
2023-05-21T06:00:44.837Z,619.00
2023-05-21T06:01:44.880Z,616.00
2023-05-21T06:02:45.007Z,616.00
2023-05-21T06:03:45.041Z,615.00
2023-05-21T06:04:44.989Z,620.00
2023-05-21T06:05:45.113Z,614.00
2023-05-21T06:06:45.053Z,617.00
2023-05-21T06:07:45.083Z,622.00
2023-05-21T06:08:45.302Z,618.00
2023-05-21T06:09:45.161Z,616.00
2023-05-21T06:10:45.197Z,617.00
2023-05-21T06:11:45.243Z,616.00
2023-05-21T06:12:45.327Z,614.00
2023-05-21T06:13:45.305Z,617.00
2023-05-21T06:14:45.411Z,615.00
2023-05-21T06:15:45.422Z,611.00
2023-05-21T06:16:45.411Z,615.00
2023-05-21T06:17:45.488Z,619.00
2023-05-21T06:18:45.505Z,617.00
2023-05-21T06:19:45.577Z,614.00
2023-05-21T06:20:45.572Z,613.00
2023-05-21T06:21:45.606Z,615.00
2023-05-21T06:22:45.640Z,618.00
2023-05-21T06:23:45.681Z,616.00
2023-05-21T06:24:45.710Z,616.00
2023-05-21T06:25:45.833Z,615.00
2023-05-21T06:26:45.781Z,616.00
2023-05-21T06:27:45.835Z,614.00
2023-05-21T06:28:46.817Z,609.00
2023-05-21T06:29:45.914Z,616.00
2023-05-21T06:30:45.951Z,610.00
2023-05-21T06:31:46.002Z,613.00
2023-05-21T06:32:46.067Z,612.00
2023-05-21T06:33:46.111Z,615.00
2023-05-21T06:34:46.104Z,616.00
2023-05-21T06:35:46.117Z,615.00
2023-05-21T06:36:46.153Z,610.00
2023-05-21T06:37:46.186Z,608.00
2023-05-21T06:38:46.219Z,607.00
2023-05-21T06:39:46.248Z,609.00
2023-05-21T06:40:46.278Z,606.00
2023-05-21T06:41:46.306Z,605.00
2023-05-21T06:42:46.341Z,608.00
2023-05-21T06:43:46.359Z,607.00
2023-05-21T06:44:46.390Z,609.00
2023-05-21T06:45:46.469Z,611.00
2023-05-21T06:46:46.447Z,609.00
2023-05-21T06:47:46.523Z,614.00
2023-05-21T06:48:46.505Z,615.00
2023-05-21T06:49:46.538Z,605.00
2023-05-21T06:50:46.568Z,606.00
2023-05-21T06:51:46.589Z,608.00
2023-05-21T06:52:46.614Z,610.00
2023-05-21T06:53:46.637Z,609.00
2023-05-21T06:54:46.683Z,602.00
2023-05-21T06:55:46.701Z,610.00
2023-05-21T06:56:46.711Z,604.00
2023-05-21T06:57:46.807Z,608.00
2023-05-21T06:58:46.776Z,606.00
2023-05-21T06:59:46.876Z,607.00
2023-05-21T07:00:46.864Z,603.00
2023-05-21T07:01:46.883Z,609.00
2023-05-21T07:02:46.981Z,603.00
2023-05-21T07:03:46.942Z,600.00
2023-05-21T07:04:46.941Z,604.00
2023-05-21T07:05:46.950Z,596.00
2023-05-21T07:06:47.055Z,608.00
2023-05-21T07:07:47.001Z,601.00
2023-05-21T07:08:47.082Z,601.00
2023-05-21T07:09:47.038Z,601.00
2023-05-21T07:10:47.068Z,601.00
2023-05-21T07:11:47.116Z,605.00
2023-05-21T07:12:47.120Z,603.00
2023-05-21T07:13:47.127Z,605.00
2023-05-21T07:14:47.157Z,598.00
2023-05-21T07:15:47.168Z,600.00
2023-05-21T07:16:47.224Z,600.00
2023-05-21T07:17:47.267Z,604.00
2023-05-21T07:18:47.297Z,603.00
2023-05-21T07:19:47.266Z,599.00
2023-05-21T07:20:47.294Z,595.00
2023-05-21T07:21:47.300Z,604.00
2023-05-21T07:22:47.323Z,601.00
2023-05-21T07:23:47.341Z,598.00
2023-05-21T07:24:47.366Z,602.00
2023-05-21T07:25:47.391Z,599.00
2023-05-21T07:26:47.409Z,605.00
2023-05-21T07:27:47.443Z,598.00
2023-05-21T07:28:47.515Z,601.00
2023-05-21T07:29:47.486Z,596.00
2023-05-21T07:30:47.515Z,595.00
2023-05-21T07:31:47.517Z,597.00
2023-05-21T07:32:47.562Z,598.00
2023-05-21T07:33:47.573Z,605.00
2023-05-21T07:34:47.594Z,596.00
2023-05-21T07:35:47.618Z,591.00
2023-05-21T07:36:47.625Z,600.00
2023-05-21T07:37:47.675Z,593.00
2023-05-21T07:38:47.686Z,598.00
2023-05-21T07:39:47.696Z,596.00
2023-05-21T07:40:47.755Z,595.00
2023-05-21T07:41:47.713Z,600.00
2023-05-21T07:42:47.738Z,591.00
2023-05-21T07:43:47.751Z,592.00
2023-05-21T07:44:47.765Z,594.00
2023-05-21T07:45:47.802Z,595.00
2023-05-21T07:46:47.941Z,595.00
2023-05-21T07:47:47.873Z,591.00
2023-05-21T07:48:47.913Z,589.00
2023-05-21T07:49:47.862Z,596.00
2023-05-21T07:50:47.883Z,599.00
2023-05-21T07:51:47.912Z,594.00
2023-05-21T07:52:47.967Z,592.00
2023-05-21T07:53:47.925Z,593.00
2023-05-21T07:54:47.948Z,594.00
2023-05-21T07:55:48.114Z,594.00
2023-05-21T07:56:47.963Z,585.00
2023-05-21T07:57:47.966Z,597.00
2023-05-21T07:58:48.845Z,588.00
2023-05-21T07:59:48.013Z,595.00
2023-05-21T08:00:48.100Z,591.00
2023-05-21T08:01:48.114Z,593.00
2023-05-21T08:02:48.092Z,592.00
2023-05-21T08:03:48.120Z,593.00
2023-05-21T08:04:48.119Z,594.00
2023-05-21T08:05:48.088Z,587.00
2023-05-21T08:06:48.072Z,585.00
2023-05-21T08:07:48.071Z,588.00
2023-05-21T08:08:48.088Z,587.00
2023-05-21T08:09:48.104Z,586.00
2023-05-21T08:10:48.113Z,588.00
2023-05-21T08:11:48.125Z,586.00
2023-05-21T08:12:48.156Z,586.00
2023-05-21T08:13:48.123Z,592.00
2023-05-21T08:14:48.137Z,591.00
2023-05-21T08:15:49.497Z,588.00
2023-05-21T08:16:48.388Z,588.00
2023-05-21T08:17:48.250Z,583.00
2023-05-21T08:18:48.259Z,592.00
2023-05-21T08:19:48.249Z,587.00
2023-05-21T08:20:48.253Z,582.00
2023-05-21T08:21:48.971Z,591.00
2023-05-21T08:22:48.292Z,588.00
2023-05-21T08:23:48.284Z,590.00
2023-05-21T08:24:48.300Z,592.00
2023-05-21T08:25:48.295Z,590.00
2023-05-21T08:26:48.306Z,587.00
2023-05-21T08:27:49.463Z,587.00
2023-05-21T08:28:48.853Z,586.00
2023-05-21T08:29:48.334Z,584.00
2023-05-21T08:30:48.349Z,583.00
2023-05-21T08:31:48.371Z,587.00
2023-05-21T08:32:48.417Z,588.00
2023-05-21T08:33:48.355Z,591.00
2023-05-21T08:34:48.445Z,583.00
2023-05-21T08:35:48.376Z,586.00
2023-05-21T08:36:48.390Z,587.00
2023-05-21T08:37:48.387Z,585.00
2023-05-21T08:38:48.384Z,587.00
2023-05-21T08:39:48.413Z,584.00
2023-05-21T08:40:48.409Z,590.00
2023-05-21T08:41:48.414Z,583.00
2023-05-21T08:42:48.436Z,583.00
2023-05-21T08:43:50.239Z,585.00
2023-05-21T08:44:48.429Z,586.00
2023-05-21T08:45:48.436Z,581.00
2023-05-21T08:46:48.440Z,583.00
2023-05-21T08:47:49.481Z,585.00
2023-05-21T08:48:48.444Z,585.00
2023-05-21T08:49:48.467Z,585.00
2023-05-21T08:50:48.450Z,583.00
2023-05-21T08:51:48.473Z,585.00
2023-05-21T08:52:48.488Z,586.00
2023-05-21T08:53:48.484Z,580.00
2023-05-21T08:54:48.496Z,581.00
2023-05-21T08:55:49.234Z,585.00
2023-05-21T08:56:48.495Z,585.00
2023-05-21T08:57:48.494Z,582.00
2023-05-21T08:58:48.506Z,579.00
2023-05-21T08:59:48.505Z,584.00
2023-05-21T09:00:48.624Z,576.00
2023-05-21T09:01:48.565Z,583.00
2023-05-21T09:02:48.553Z,580.00
2023-05-21T09:03:48.550Z,579.00
2023-05-21T09:04:48.498Z,580.00
2023-05-21T09:05:48.498Z,585.00
2023-05-21T09:06:48.534Z,579.00
2023-05-21T09:07:49.759Z,580.00
2023-05-21T09:08:48.573Z,579.00
2023-05-21T09:09:48.551Z,577.00
2023-05-21T09:10:48.568Z,577.00
2023-05-21T09:11:48.566Z,579.00
2023-05-21T09:12:48.563Z,581.00
2023-05-21T09:13:48.546Z,579.00
2023-05-21T09:14:48.554Z,580.00
2023-05-21T09:15:48.564Z,582.00
2023-05-21T09:16:48.636Z,582.00
2023-05-21T09:17:48.631Z,579.00
2023-05-21T09:18:48.674Z,580.00
2023-05-21T09:19:48.524Z,577.00
2023-05-21T09:20:48.519Z,583.00
2023-05-21T09:21:48.511Z,579.00
2023-05-21T09:22:48.528Z,579.00
2023-05-21T09:23:48.586Z,580.00
2023-05-21T09:24:48.509Z,579.00
2023-05-21T09:25:48.497Z,580.00
2023-05-21T09:26:48.565Z,584.00
2023-05-21T09:27:48.496Z,580.00
2023-05-21T09:28:48.473Z,580.00
2023-05-21T09:29:48.629Z,582.00
2023-05-21T09:30:48.470Z,579.00
2023-05-21T09:31:48.481Z,583.00
2023-05-21T09:32:48.599Z,583.00
2023-05-21T09:33:48.457Z,579.00
2023-05-21T09:34:48.439Z,581.00
2023-05-21T09:35:48.445Z,578.00
2023-05-21T09:36:48.425Z,578.00
2023-05-21T09:37:48.419Z,580.00
2023-05-21T09:38:48.419Z,580.00
2023-05-21T09:39:48.416Z,578.00
2023-05-21T09:40:48.410Z,577.00
2023-05-21T09:41:48.490Z,583.00
2023-05-21T09:42:49.375Z,578.00
2023-05-21T09:43:48.382Z,571.00
2023-05-21T09:44:48.366Z,582.00
2023-05-21T09:45:48.351Z,580.00
2023-05-21T09:46:48.414Z,579.00
2023-05-21T09:47:48.405Z,579.00
2023-05-21T09:48:48.346Z,580.00
2023-05-21T09:49:48.353Z,581.00
2023-05-21T09:50:48.330Z,579.00
2023-05-21T09:51:48.304Z,579.00
2023-05-21T09:52:48.293Z,580.00
2023-05-21T09:53:48.322Z,576.00
2023-05-21T09:54:48.356Z,579.00
2023-05-21T09:55:48.299Z,576.00
2023-05-21T09:56:48.294Z,576.00
2023-05-21T09:57:50.471Z,580.00
2023-05-21T09:58:48.360Z,575.00
2023-05-21T09:59:48.349Z,578.00
2023-05-21T10:00:48.350Z,579.00
2023-05-21T10:01:48.479Z,580.00
2023-05-21T10:02:48.423Z,576.00
2023-05-21T10:03:50.001Z,576.00
2023-05-21T10:04:48.401Z,575.00
2023-05-21T10:05:48.344Z,579.00
2023-05-21T10:06:48.373Z,576.00
2023-05-21T10:07:48.357Z,568.00
2023-05-21T10:08:48.360Z,578.00
2023-05-21T10:09:48.377Z,582.00
2023-05-21T10:10:48.377Z,571.00
2023-05-21T10:11:48.369Z,581.00
2023-05-21T10:12:48.338Z,574.00
2023-05-21T10:13:48.331Z,577.00
2023-05-21T10:14:48.314Z,574.00
2023-05-21T10:15:50.207Z,575.00
2023-05-21T10:16:48.537Z,574.00
2023-05-21T10:17:48.440Z,579.00
2023-05-21T10:18:48.439Z,569.00
2023-05-21T10:19:48.420Z,584.00
2023-05-21T10:20:48.416Z,574.00
2023-05-21T10:21:48.583Z,577.00
2023-05-21T10:22:48.400Z,579.00
2023-05-21T10:23:48.384Z,580.00
2023-05-21T10:24:48.386Z,578.00
2023-05-21T10:25:48.433Z,581.00
2023-05-21T10:26:48.367Z,581.00
2023-05-21T10:27:48.338Z,579.00
2023-05-21T10:28:48.322Z,582.00
2023-05-21T10:29:48.302Z,582.00
2023-05-21T10:30:48.320Z,580.00
2023-05-21T10:31:48.300Z,571.00
2023-05-21T10:32:48.352Z,584.00
2023-05-21T10:33:48.280Z,571.00
2023-05-21T10:34:48.241Z,571.00
2023-05-21T10:35:48.235Z,578.00
2023-05-21T10:36:48.893Z,580.00
2023-05-21T10:37:48.190Z,578.00
2023-05-21T10:38:48.163Z,583.00
2023-05-21T10:39:48.160Z,577.00
2023-05-21T10:40:48.142Z,575.00
2023-05-21T10:41:48.120Z,583.00
2023-05-21T10:42:48.100Z,581.00
2023-05-21T10:43:48.074Z,581.00
2023-05-21T10:44:48.049Z,581.00
2023-05-21T10:45:48.063Z,580.00
2023-05-21T10:46:48.023Z,576.00
2023-05-21T10:47:52.133Z,586.00
2023-05-21T10:48:47.972Z,586.00
2023-05-21T10:49:47.978Z,587.00
2023-05-21T10:50:47.936Z,586.00
2023-05-21T10:51:47.922Z,585.00
2023-05-21T10:52:47.899Z,582.00
2023-05-21T10:53:47.955Z,586.00
2023-05-21T10:54:47.834Z,587.00
2023-05-21T10:55:47.824Z,580.00
2023-05-21T10:56:47.796Z,589.00
2023-05-21T10:57:47.763Z,585.00
2023-05-21T10:58:47.729Z,582.00
2023-05-21T10:59:47.718Z,571.00
2023-05-21T11:00:47.776Z,585.00
2023-05-21T11:01:47.809Z,585.00
2023-05-21T11:02:47.736Z,584.00
2023-05-21T11:03:47.669Z,588.00
2023-05-21T11:04:47.586Z,582.00
2023-05-21T11:05:47.567Z,585.00
2023-05-21T11:06:47.596Z,584.00
2023-05-21T11:07:47.516Z,584.00
2023-05-21T11:08:47.510Z,577.00
2023-05-21T11:09:47.471Z,586.00
2023-05-21T11:10:47.518Z,584.00
2023-05-21T11:11:47.418Z,577.00
2023-05-21T11:12:47.405Z,583.00
2023-05-21T11:13:47.421Z,576.00
2023-05-21T11:14:47.354Z,584.00
2023-05-21T11:15:47.350Z,582.00
2023-05-21T11:16:47.323Z,589.00
2023-05-21T11:17:47.307Z,582.00
2023-05-21T11:18:47.362Z,584.00
2023-05-21T11:19:47.323Z,584.00
2023-05-21T11:20:47.229Z,588.00
2023-05-21T11:21:47.169Z,578.00
2023-05-21T11:22:47.211Z,579.00
2023-05-21T11:23:47.122Z,582.00
2023-05-21T11:24:49.876Z,580.00
2023-05-21T11:25:47.069Z,581.00
2023-05-21T11:26:47.044Z,581.00
2023-05-21T11:27:47.026Z,585.00
2023-05-21T11:28:47.002Z,587.00
2023-05-21T11:29:46.973Z,579.00
2023-05-21T11:30:46.963Z,586.00
2023-05-21T11:31:46.995Z,589.00
2023-05-21T11:32:46.959Z,589.00
2023-05-21T11:33:46.950Z,578.00
2023-05-21T11:34:46.870Z,584.00
2023-05-21T11:35:46.949Z,588.00
2023-05-21T11:36:46.791Z,582.00
2023-05-21T11:37:46.780Z,584.00
2023-05-21T11:38:46.750Z,586.00
2023-05-21T11:39:46.729Z,584.00
2023-05-21T11:40:46.695Z,584.00
2023-05-21T11:41:46.674Z,584.00
2023-05-21T11:42:46.700Z,584.00
2023-05-21T11:43:46.617Z,582.00
2023-05-21T11:44:46.591Z,583.00
2023-05-21T11:45:46.566Z,581.00
2023-05-21T11:46:46.580Z,584.00
2023-05-21T11:47:46.538Z,580.00
2023-05-21T11:48:46.470Z,582.00
2023-05-21T11:49:46.547Z,584.00
2023-05-21T11:50:46.415Z,583.00
2023-05-21T11:51:46.400Z,582.00
2023-05-21T11:52:46.365Z,569.00
2023-05-21T11:53:46.360Z,572.00
2023-05-21T11:54:46.474Z,568.00
2023-05-21T11:55:46.282Z,572.00
2023-05-21T11:56:46.273Z,575.00
2023-05-21T11:57:46.247Z,568.00
2023-05-21T11:58:46.213Z,571.00
2023-05-21T11:59:46.202Z,563.00
2023-05-21T12:00:46.158Z,569.00
2023-05-21T12:01:46.134Z,576.00
2023-05-21T12:02:46.178Z,565.00
2023-05-21T12:03:46.216Z,571.00
2023-05-21T12:04:46.057Z,576.00
2023-05-21T12:05:46.108Z,571.00
2023-05-21T12:06:46.004Z,569.00
2023-05-21T12:07:46.074Z,564.00
2023-05-21T12:08:45.951Z,568.00
2023-05-21T12:09:45.931Z,565.00
2023-05-21T12:10:46.286Z,564.00
2023-05-21T12:11:45.892Z,563.00
2023-05-21T12:12:54.764Z,566.00
2023-05-21T12:13:46.902Z,567.00
2023-05-21T12:14:45.804Z,567.00
2023-05-21T12:15:45.784Z,568.00
2023-05-21T12:16:45.765Z,570.00
2023-05-21T12:17:45.773Z,582.00
2023-05-21T12:18:45.723Z,575.00
2023-05-21T12:19:45.664Z,573.00
2023-05-21T12:20:45.638Z,579.00
2023-05-21T12:21:45.612Z,566.00
2023-05-21T12:22:45.649Z,571.00
2023-05-21T12:23:45.641Z,574.00
2023-05-21T12:24:45.639Z,571.00
2023-05-21T12:25:45.671Z,570.00
2023-05-21T12:26:45.700Z,574.00
2023-05-21T12:27:45.726Z,565.00
2023-05-21T12:28:45.738Z,574.00